Terminal Aerodrome Forecast
Issued by NWS

Home | Current Version | Previous Version | Text Only | Print | Product List | Glossary On
Versions: 1 2 3 4 5 6 7 8 9 10 11 12 13 14 15
648
FTUS45 KRIW 251720
TAFLND
TAF
KLND 251720Z 2518/2618 VRB05KT P6SM SKC
     FM252200 27011G18KT P6SM FEW250
     FM260100 30009KT P6SM SCT250
     FM260500 02011G17KT P6SM VCSH BKN040
     FM260800 35007KT P6SM VCSH BKN030 OVC050
     FM261500 09006KT P6SM BKN040=

USA.gov is the U.S. government's official web portal to all federal, state and local government web resources and services.